Time;durP1;ratioP1;P1;durP2;ratioP2;P2;SDS_P1;SDS_P2;PMS_P1;PMS_P2;Temp;Humidity;BMP_temperature;BMP_pressure;BME280_temperature;BME280_humidity;BME280_pressure;Samples;Min_cycle;Max_cycle;Signal;HPM_P1;HPM_P2
2022/12/16 00:01:55;;;;;;;33.63;13.68;;;-8.30;99.90;;;-10.60;100.00;100185.06;4906303;29;20043;-85
2022/12/16 00:04:21;;;;;;;26.40;13.00;;;-8.50;99.90;;;-10.61;100.00;100193.06;4908842;29;20036;-84
2022/12/16 00:06:47;;;;;;;32.05;13.82;;;-8.50;99.90;;;-10.65;100.00;100200.28;4905993;29;20024;-85
2022/12/16 00:09:12;;;;;;;28.63;13.48;;;-8.60;99.90;;;-10.63;100.00;100198.41;4911535;29;20040;-85
2022/12/16 00:11:38;;;;;;;30.15;14.32;;;-8.60;99.90;;;-10.63;100.00;100190.50;4911057;29;20245;-85
2022/12/16 00:14:04;;;;;;;26.73;12.90;;;-8.60;99.90;;;-10.54;100.00;100194.38;4913203;29;20080;-85
2022/12/16 00:16:30;;;;;;;34.42;15.05;;;-8.40;99.90;;;-10.30;100.00;100186.75;4910560;29;20483;-84
2022/12/16 00:18:56;;;;;;;30.17;14.60;;;-8.30;99.90;;;-10.36;100.00;100187.09;4905657;29;20044;-85
2022/12/16 00:21:27;;;;;;;29.33;13.65;;;-8.30;99.90;;;-10.31;100.00;100192.09;4913220;29;20028;-85
2022/12/16 00:23:53;;;;;;;31.15;13.40;;;-8.30;99.90;;;-10.15;100.00;100189.38;4908750;29;20055;-85
2022/12/16 00:26:19;;;;;;;29.67;13.98;;;-8.10;99.90;;;-10.24;100.00;100179.41;4910091;29;20479;-84
2022/12/16 00:28:44;;;;;;;30.08;14.55;;;-8.10;99.90;;;-10.30;100.00;100191.16;4913888;29;20511;-84
2022/12/16 00:31:11;;;;;;;32.58;13.82;;;-8.20;99.90;;;-10.40;100.00;100186.47;4906926;29;20036;-84
2022/12/16 00:33:37;;;;;;;30.48;13.93;;;-8.20;99.90;;;-10.30;100.00;100194.66;4908111;29;20091;-84
2022/12/16 00:36:03;;;;;;;30.05;14.30;;;-8.20;99.90;;;-10.36;100.00;100192.38;4903373;29;20115;-83
2022/12/16 00:38:28;;;;;;;29.67;13.60;;;-8.20;99.90;;;-10.29;100.00;100204.28;4915959;29;20036;-86
2022/12/16 00:40:54;;;;;;;32.00;14.23;;;-8.20;99.90;;;-10.22;100.00;100209.19;4922853;29;20087;-86
2022/12/16 00:43:20;;;;;;;31.30;14.50;;;-8.10;99.90;;;-10.12;100.00;100200.59;4913339;29;20143;-86
2022/12/16 00:45:47;;;;;;;36.53;15.98;;;-8.10;99.90;;;-10.05;100.00;100203.72;4909498;29;20158;-86
2022/12/16 00:48:13;;;;;;;39.60;14.90;;;-8.00;99.90;;;-10.19;100.00;100201.94;4911566;29;20040;-87
2022/12/16 00:50:39;;;;;;;33.75;13.63;;;-8.00;99.90;;;-10.26;100.00;100203.22;4903177;29;20089;-86
2022/12/16 00:53:05;;;;;;;31.13;14.38;;;-8.10;99.90;;;-10.34;100.00;100190.53;4913140;29;20086;-85
2022/12/16 00:55:31;;;;;;;32.60;13.75;;;-8.10;99.90;;;-10.36;100.00;100196.81;4908365;29;20114;-85
2022/12/16 00:57:57;;;;;;;30.20;13.60;;;-8.10;99.90;;;-10.35;100.00;100198.53;4912559;29;20035;-86
2022/12/16 01:00:24;;;;;;;30.02;13.75;;;-8.20;99.90;;;-10.35;100.00;100209.91;4919443;29;20084;-86
2022/12/16 01:02:50;;;;;;;31.40;14.77;;;-8.20;99.90;;;-10.42;100.00;100212.13;4909616;29;20150;-83
2022/12/16 01:05:20;;;;;;;31.15;14.02;;;-8.20;99.90;;;-10.40;100.00;100206.72;4912133;29;20043;-85
2022/12/16 01:07:47;;;;;;;32.33;14.43;;;-8.30;99.90;;;-10.39;100.00;100213.69;4913209;29;20153;-84
2022/12/16 01:10:13;;;;;;;29.35;14.10;;;-8.20;99.90;;;-10.48;100.00;100207.19;4908489;29;20059;-85
2022/12/16 01:12:39;;;;;;;27.88;13.88;;;-8.20;99.90;;;-10.49;100.00;100212.56;4906378;29;20071;-84
2022/12/16 01:15:07;;;;;;;32.33;14.23;;;-8.30;99.90;;;-10.44;100.00;100221.06;4903505;29;20037;-85
2022/12/16 01:17:34;;;;;;;33.08;15.27;;;-8.30;99.90;;;-10.50;100.00;100216.16;4901174;29;20043;-84
2022/12/16 01:20:00;;;;;;;31.60;13.93;;;-8.30;99.90;;;-10.50;100.00;100222.25;4908311;29;20047;-85
2022/12/16 01:22:31;;;;;;;30.63;14.02;;;-8.40;99.90;;;-10.60;100.00;100223.75;4909569;29;20411;-86
2022/12/16 01:24:58;;;;;;;33.08;14.82;;;-8.50;99.90;;;-10.72;100.00;100227.97;4910423;29;20043;-85
2022/12/16 01:27:25;;;;;;;34.03;13.38;;;-8.60;99.90;;;-10.84;100.00;100227.75;4918886;29;20124;-85
2022/12/16 01:29:51;;;;;;;26.73;12.70;;;-8.80;99.90;;;-10.95;100.00;100226.69;4911898;29;20126;-85
2022/12/16 01:32:17;;;;;;;29.58;12.82;;;-8.90;99.90;;;-10.93;100.00;100240.63;4912632;29;20341;-85
2022/12/16 01:34:43;;;;;;;28.98;13.50;;;-8.90;99.90;;;-10.94;100.00;100229.22;4918341;29;20133;-83
2022/12/16 01:37:12;;;;;;;30.65;12.85;;;-8.90;99.90;;;-11.00;100.00;100238.34;4900967;29;20036;-84
2022/12/16 01:39:38;;;;;;;28.92;12.68;;;-9.00;99.90;;;-11.06;100.00;100237.84;4913457;29;20028;-84
2022/12/16 01:42:19;;;;;;;33.92;14.55;;;-9.00;99.90;;;-11.09;100.00;100230.13;4921841;29;20116;-87
2022/12/16 01:44:48;;;;;;;30.38;13.80;;;-9.00;99.90;;;-11.03;100.00;100235.84;4911296;29;20471;-85
2022/12/16 01:47:19;;;;;;;28.20;12.45;;;-8.90;99.90;;;-10.94;100.00;100246.84;4898751;29;20040;-85
2022/12/16 01:50:03;;;;;;;28.05;13.40;;;-8.80;99.90;;;-10.93;100.00;100243.25;4903184;29;20042;-85
2022/12/16 01:52:38;;;;;;;28.60;13.15;;;-8.80;99.90;;;-10.93;100.00;100241.44;4907101;29;20039;-84
2022/12/16 01:55:31;;;;;;;33.60;13.98;;;-8.80;99.90;;;-10.96;100.00;100246.06;4904294;29;20040;-84
2022/12/16 01:58:10;;;;;;;29.67;12.73;;;-8.80;99.90;;;-10.94;100.00;100245.03;4906520;29;20123;-84
2022/12/16 02:00:39;;;;;;;27.85;12.57;;;-8.80;99.90;;;-11.04;100.00;100246.50;4911779;29;20040;-84
2022/12/16 02:03:06;;;;;;;32.10;13.20;;;-8.90;99.90;;;-11.15;100.00;100244.47;4917714;29;20113;-84
2022/12/16 02:05:38;;;;;;;26.80;13.27;;;-9.10;99.90;;;-11.22;100.00;100241.34;4910701;29;20041;-83
2022/12/16 02:08:16;;;;;;;29.23;13.32;;;-9.10;99.90;;;-11.28;100.00;100244.31;4908182;29;20056;-83
2022/12/16 02:11:17;;;;;;;30.30;12.50;;;-9.20;99.90;;;-11.36;100.00;100249.19;4911412;29;20102;-85
2022/12/16 02:14:18;;;;;;;25.88;11.80;;;-9.30;99.90;;;-11.42;100.00;100250.34;4920657;29;20568;-86
2022/12/16 02:17:10;;;;;;;25.35;11.20;;;-9.40;99.90;;;-11.49;100.00;100249.84;4902196;29;20503;-85
2022/12/16 02:19:48;;;;;;;27.30;12.23;;;-9.40;99.90;;;-11.56;100.00;100248.50;4902300;29;20067;-85
2022/12/16 02:22:48;;;;;;;26.35;12.45;;;-9.50;99.90;;;-11.62;100.00;100249.66;4907149;29;20072;-85
2022/12/16 02:26:12;;;;;;;29.80;12.10;;;-9.50;99.90;;;-11.64;100.00;100242.81;4906791;29;20430;-85
2022/12/16 02:29:17;;;;;;;24.30;11.55;;;-9.60;99.90;;;-11.64;100.00;100242.81;4889626;29;20246;-84
2022/12/16 02:32:03;;;;;;;22.65;12.07;;;-9.60;99.90;;;-11.66;100.00;100244.66;4909418;29;20771;-83
2022/12/16 02:34:58;;;;;;;24.20;11.00;;;-9.50;99.90;;;-11.74;100.00;100245.91;4907572;29;20143;-84
2022/12/16 02:37:49;;;;;;;26.02;11.50;;;-9.50;99.90;;;-11.77;100.00;100242.63;4911202;29;20024;-84
2022/12/16 02:40:36;;;;;;;25.40;10.95;;;-9.60;99.90;;;-11.71;100.00;100248.38;4905241;29;20384;-84
2022/12/16 02:43:53;;;;;;;31.58;11.50;;;-9.60;99.90;;;-11.50;100.00;100247.31;4900654;29;20040;-84
2022/12/16 02:46:26;;;;;;;26.08;12.05;;;-9.40;99.90;;;-11.50;100.00;100240.25;4893941;29;20115;-84
2022/12/16 02:48:53;;;;;;;28.35;11.52;;;-9.30;99.90;;;-11.51;100.00;100245.63;4907288;29;20048;-83
2022/12/16 02:51:24;;;;;;;27.13;12.88;;;-9.40;99.90;;;-11.58;100.00;100238.03;4905600;29;20036;-84
2022/12/16 02:53:54;;;;;;;25.50;12.10;;;-9.30;99.90;;;-11.63;100.00;100237.44;4898546;29;20032;-83
2022/12/16 02:57:08;;;;;;;31.00;12.98;;;-9.50;99.90;;;-11.53;100.00;100239.59;4902194;29;20032;-83
2022/12/16 02:59:53;;;;;;;24.35;11.20;;;-9.40;99.90;;;-11.46;100.00;100227.75;4906825;29;20043;-83
2022/12/16 03:02:50;;;;;;;26.00;11.30;;;-9.30;99.90;;;-11.37;100.00;100236.94;4911377;29;20039;-84
2022/12/16 03:05:35;;;;;;;25.30;11.98;;;-9.20;99.90;;;-11.36;100.00;100241.28;4911849;29;20036;-84
2022/12/16 03:08:08;;;;;;;23.10;11.32;;;-9.10;99.90;;;-11.37;100.00;100243.03;4909470;29;20032;-83
2022/12/16 03:10:45;;;;;;;25.88;11.68;;;-9.20;99.90;;;-11.43;100.00;100232.84;4901551;29;20032;-83
2022/12/16 03:13:16;;;;;;;29.33;12.65;;;-9.20;99.90;;;-11.39;100.00;100236.19;4905466;29;20547;-83
2022/12/16 03:15:44;;;;;;;27.08;12.77;;;-9.20;99.90;;;-11.44;100.00;100229.38;4911405;29;20064;-83
2022/12/16 03:18:14;;;;;;;28.02;12.57;;;-9.30;99.90;;;-11.39;100.00;100238.81;4903970;29;20404;-85
2022/12/16 03:20:52;;;;;;;31.45;13.75;;;-9.30;99.90;;;-11.37;100.00;100239.56;4904128;29;20155;-84
2022/12/16 03:23:29;;;;;;;;;;;-9.20;99.90;;;-11.37;100.00;100236.94;4906984;29;20063;-83
2022/12/16 03:26:04;;;;;;;29.60;12.75;;;-9.30;99.90;;;-11.33;100.00;100244.56;4896198;29;19970;-83
2022/12/16 03:28:51;;;;;;;30.80;11.38;;;-9.20;99.90;;;-11.49;100.00;100243.75;4910706;29;20032;-83
2022/12/16 03:31:40;;;;;;;25.98;11.20;;;-9.40;99.90;;;-11.50;100.00;100242.88;4907455;29;20028;-83
2022/12/16 03:34:26;;;;;;;;;;;-9.40;99.90;;;-11.49;100.00;100243.75;4906353;29;20025;-83
2022/12/16 03:36:59;;;;;;;26.55;11.85;;;-9.40;99.90;;;-11.55;100.00;100239.66;4916422;29;19919;-83
2022/12/16 03:39:26;;;;;;;25.27;11.32;;;-9.50;99.90;;;-11.67;100.00;100245.56;4919964;29;20043;-84
2022/12/16 03:41:54;;;;;;;29.45;11.60;;;-9.60;99.90;;;-11.73;100.00;100249.41;4899911;29;20051;-84
2022/12/16 03:44:24;;;;;;;27.13;11.82;;;-9.70;99.90;;;-11.80;100.00;100248.88;4901684;29;20049;-83
2022/12/16 03:46:50;;;;;;;26.85;11.65;;;-9.70;99.90;;;-11.91;100.00;100244.19;4905486;29;20037;-83
2022/12/16 03:49:16;;;;;;;22.42;10.50;;;-9.80;99.90;;;-11.93;100.00;100246.06;4905008;29;20041;-83
2022/12/16 03:51:42;;;;;;;25.45;11.35;;;-9.90;99.90;;;-11.82;100.00;100247.25;4913569;29;20365;-83
2022/12/16 03:54:07;;;;;;;28.33;11.68;;;-9.80;99.90;;;-11.73;100.00;100242.34;4900639;29;20468;-83
2022/12/16 03:56:33;;;;;;;28.23;12.00;;;-9.70;99.90;;;-11.59;100.00;100252.13;4906550;29;20114;-85
2022/12/16 03:58:59;;;;;;;24.45;11.07;;;-9.60;99.90;;;-11.76;100.00;100254.84;4912117;29;20579;-83
2022/12/16 04:01:25;;;;;;;23.83;11.30;;;-9.60;99.90;;;-11.83;100.00;100254.31;4909939;29;20452;-84
2022/12/16 04:03:50;;;;;;;28.77;11.63;;;-9.70;99.90;;;-11.73;100.00;100252.88;4906805;29;20036;-82
2022/12/16 04:06:17;;;;;;;23.00;10.70;;;-9.70;99.90;;;-11.65;100.00;100259.53;4898752;29;20032;-84
2022/12/16 04:08:47;;;;;;;27.55;11.07;;;-9.60;99.90;;;-11.68;100.00;100254.41;4907644;29;20071;-83
2022/12/16 04:25:28;;;;;;;24.30;11.32;;;-10.20;99.90;;;-12.44;100.00;100264.53;4910894;29;20480;-77
2022/12/16 04:27:57;;;;;;;22.85;11.07;;;-10.30;99.90;;;-12.50;100.00;100264.81;4906618;29;20040;-77
2022/12/16 04:30:26;;;;;;;22.40;10.75;;;-10.40;99.90;;;-12.54;100.00;100265.91;4905527;29;20067;-77
